ADDS TAF Board (Experimental) INFO Settings
IDs: Format: Expanded Condensed

KBWI - Baltimore-Washington, MD, US

Issued at 0827 UTC 29 May 2016
Updated at: 1126 UTC 29 May 2016
Time1054Z 29/12Z 29/13Z 29/14Z 29/15Z 29/16Z 29/17Z 29/18Z 29/19Z 29/20Z 29/21Z 29/22Z 29/23Z 30/00Z
Type OBS PRVL PRVL PRVL PRVL PRVL PRVL PRVL PRVL PRVL PRVL PRVL PRVL PRVL
VIS 10 >6 >6 >6 >6 >6 >6 >6 >6 >6 >6 >6 >6 >6
CIG 250 250 250 250 250 250 250 120 100 100 100 100 100 100
Cover BKN BKN BKN BKN BKN BKN BKN BKN BKN BKN BKN BKN BKN BKN
FltCat VFR VFR VFR VFR VFR VFR VFR VFR VFR VFR VFR VFR VFR VFR
WX -- -- -- -- -- -- -- -- SHRA SHRA SHRA SHRA SHRA SHRA
WDir VRB VRB VRB VRB VRB VRB VRB 160 160 160 160 160 160 160
WSpd 0 0 0 0 0 0 0 7 7 7 7 7 7 7
WGst -- -- -- -- -- -- -- -- -- -- -- -- -- --
R04/22
XWnd VRB VRB VRB VRB VRB VRB VRB -6 -6 -6 -6 -6 -6 -6
HWnd VRB VRB VRB VRB VRB VRB VRB -4 -4 -4 -4 -4 -4 -4
R10/28
XWnd VRB VRB VRB VRB VRB VRB VRB -6 -6 -6 -6 -6 -6 -6
HWnd VRB VRB VRB VRB VRB VRB VRB 3 3 3 3 3 3 3
R15/33
XWnd VRB VRB VRB VRB VRB VRB VRB -2 -2 -2 -2 -2 -2 -2
HWnd VRB VRB VRB VRB VRB VRB VRB 7 7 7 7 7 7 7

NOTE: TEMPO conditions in [brackets]. Keep in mind TEMPO conditions might be better (lower impact) than prevailing conditions.

Raw TAF
KBWI 290827Z 2908/3012 00000KT P6SM BKN250
  FM291800 16007KT P6SM BKN120
  FM291900 16007KT P6SM SHRA BKN100
  FM300300 16004KT 6SM SHRA OVC020
  FM300400 17004KT 3SM SHRA BR OVC020
  FM301000 VRB03KT 3SM -SHRA BR OVC010


Raw METAR
KBWI 291054Z 00000KT 10SM FEW090 SCT160 BKN250 17/15 A3015 RMK AO2 SLP209 T01720150
KBWI 290954Z 00000KT 10SM SCT160 BKN250 16/15 A3015 RMK AO2 SLP207 T01610150
KBWI 290854Z 00000KT 7SM BKN250 17/15 A3013 RMK AO2 SLP202 T01720150 55004

METAR Board
Radar Display
Forecast Discussion

TAF Board Legend

Potential Impact
Threat None Slight Moderate High
Visibility (sm) ≥5.1 5.1>X≥3 3>X≥1 <1
Ceiling (100 ft) ≥30.1 30.1>X≥10 10>X≥5 <5
Wind Speed (kt) <10 10≤X<20 20≤X<30 ≥30
Wind Gust (kt) <15 15≤X<25 25≤X<35 ≥35
Weather No Wx Reported VCTS,-TS,-FZRA,SN TS,FZRA +TS,+FZRA,+SN